createdAt,value
2018-01-28T00:00:09.701Z,3.60
2018-01-28T00:02:36.020Z,3.70
2018-01-28T00:05:02.794Z,3.60
2018-01-28T00:07:29.778Z,3.60
2018-01-28T00:09:56.557Z,3.60
2018-01-28T00:12:22.861Z,3.60
2018-01-28T00:14:49.880Z,3.60
2018-01-28T00:17:17.540Z,3.70
2018-01-28T00:19:43.826Z,3.60
2018-01-28T00:22:10.117Z,3.60
2018-01-28T00:24:36.377Z,3.60
2018-01-28T00:27:03.301Z,3.50
2018-01-28T00:29:30.666Z,3.40
2018-01-28T00:31:57.644Z,3.30
2018-01-28T00:34:23.890Z,3.30
2018-01-28T00:36:50.393Z,3.20
2018-01-28T00:39:18.157Z,3.10
2018-01-28T00:41:45.154Z,3.00
2018-01-28T00:44:11.738Z,3.00
2018-01-28T00:46:38.737Z,2.90
2018-01-28T00:49:05.450Z,2.90
2018-01-28T00:51:32.437Z,2.80
2018-01-28T00:53:59.353Z,2.70
2018-01-28T00:56:26.359Z,2.60
2018-01-28T00:58:52.613Z,2.60
2018-01-28T01:01:19.269Z,2.50
2018-01-28T01:03:47.018Z,2.40
2018-01-28T01:06:13.285Z,2.40
2018-01-28T01:08:40.552Z,2.30
2018-01-28T01:11:08.018Z,2.20
2018-01-28T01:13:35.361Z,2.20
2018-01-28T01:16:03.067Z,2.20
2018-01-28T01:18:29.826Z,2.20
2018-01-28T01:20:56.106Z,2.20
2018-01-28T01:23:22.738Z,2.10
2018-01-28T01:25:49.701Z,2.10
2018-01-28T01:28:17.058Z,2.10
2018-01-28T01:30:44.057Z,2.00
2018-01-28T01:33:10.313Z,2.10
2018-01-28T01:35:36.965Z,2.10
2018-01-28T01:38:03.243Z,2.00
2018-01-28T01:40:29.501Z,2.00
2018-01-28T01:42:55.777Z,2.00
2018-01-28T01:45:22.545Z,2.00
2018-01-28T01:47:50.417Z,2.00
2018-01-28T01:50:17.405Z,2.00
2018-01-28T01:52:43.652Z,2.00
2018-01-28T01:55:09.933Z,2.00
2018-01-28T01:57:36.975Z,1.90
2018-01-28T02:00:05.936Z,1.90
2018-01-28T02:02:32.204Z,1.80
2018-01-28T02:04:58.457Z,1.80
2018-01-28T02:07:25.465Z,1.70
2018-01-28T02:09:52.883Z,1.70
2018-01-28T02:12:20.425Z,1.60
2018-01-28T02:14:47.419Z,1.50
2018-01-28T02:17:14.337Z,1.50
2018-01-28T02:19:41.732Z,1.40
2018-01-28T02:22:08.029Z,1.50
2018-01-28T02:24:35.594Z,1.40
2018-01-28T02:27:03.977Z,1.40
2018-01-28T02:29:30.961Z,1.40
2018-01-28T02:31:57.794Z,1.40
2018-01-28T02:34:24.057Z,1.30
2018-01-28T02:36:50.617Z,1.30
2018-01-28T02:39:16.881Z,1.30
2018-01-28T02:41:43.893Z,1.30
2018-01-28T02:44:10.589Z,1.30
2018-01-28T02:46:36.860Z,1.20
2018-01-28T02:49:03.866Z,1.20
2018-01-28T02:51:30.859Z,1.10
2018-01-28T02:53:57.117Z,1.10
2018-01-28T02:56:24.009Z,1.10
2018-01-28T02:58:50.993Z,1.10
2018-01-28T03:01:17.244Z,1.10
2018-01-28T03:03:44.037Z,1.10
2018-01-28T03:06:11.426Z,1.20
2018-01-28T03:08:38.068Z,1.20
2018-01-28T03:11:04.810Z,1.10
2018-01-28T03:13:31.532Z,1.20
2018-01-28T03:15:58.524Z,1.10
2018-01-28T03:18:25.181Z,1.10
2018-01-28T03:20:52.070Z,1.10
2018-01-28T03:23:18.809Z,1.10
2018-01-28T03:25:45.493Z,1.10
2018-01-28T03:28:12.077Z,1.10
2018-01-28T03:30:38.387Z,1.20
2018-01-28T03:33:04.686Z,1.20
2018-01-28T03:35:31.946Z,1.20
2018-01-28T03:37:58.956Z,1.20
2018-01-28T03:40:25.298Z,1.20
2018-01-28T03:42:51.601Z,1.20
2018-01-28T03:45:18.417Z,1.30
2018-01-28T03:47:45.839Z,1.20
2018-01-28T03:50:12.105Z,1.20
2018-01-28T03:52:39.100Z,1.20
2018-01-28T03:55:06.117Z,1.20
2018-01-28T03:57:33.121Z,1.20
2018-01-28T04:00:00.126Z,1.20
2018-01-28T04:02:26.410Z,1.20
2018-01-28T04:04:53.109Z,1.30
2018-01-28T04:07:19.853Z,1.30
2018-01-28T04:09:47.229Z,1.30
2018-01-28T04:12:14.045Z,1.30
2018-01-28T04:14:41.044Z,1.30
2018-01-28T04:17:08.261Z,1.30
2018-01-28T04:19:35.644Z,1.30
2018-01-28T04:22:01.897Z,1.30
2018-01-28T04:24:28.141Z,1.30
2018-01-28T04:26:54.929Z,1.30
2018-01-28T04:29:22.457Z,1.20
2018-01-28T04:31:48.707Z,1.20
2018-01-28T04:34:14.961Z,1.20
2018-01-28T04:36:41.977Z,1.10
2018-01-28T04:39:08.252Z,1.10
2018-01-28T04:41:35.342Z,1.00
2018-01-28T04:44:02.009Z,1.00
2018-01-28T04:46:28.801Z,1.00
2018-01-28T04:48:56.217Z,1.00
2018-01-28T04:51:22.961Z,1.00
2018-01-28T04:53:49.209Z,0.90
2018-01-28T04:56:15.482Z,0.90
2018-01-28T04:58:42.825Z,0.90
2018-01-28T05:01:11.309Z,0.90
2018-01-28T05:03:38.989Z,0.90
2018-01-28T05:06:06.034Z,0.90
2018-01-28T05:08:32.299Z,0.90
2018-01-28T05:10:59.521Z,0.90
2018-01-28T05:13:27.022Z,1.00
2018-01-28T05:15:53.280Z,1.00
2018-01-28T05:18:20.057Z,1.00
2018-01-28T05:20:46.341Z,1.00
2018-01-28T05:23:12.613Z,1.10
2018-01-28T05:25:39.417Z,1.10
2018-01-28T05:28:06.153Z,1.10
2018-01-28T05:30:32.409Z,1.10
2018-01-28T05:32:58.665Z,1.20
2018-01-28T05:35:25.245Z,1.20
2018-01-28T05:37:52.251Z,1.20
2018-01-28T05:40:18.812Z,1.20
2018-01-28T05:42:45.081Z,1.20
2018-01-28T05:45:12.514Z,1.30
2018-01-28T05:47:39.940Z,1.30
2018-01-28T05:50:06.616Z,1.30
2018-01-28T05:52:32.872Z,1.30
2018-01-28T05:54:59.860Z,1.30
2018-01-28T05:57:26.605Z,1.30
2018-01-28T05:59:53.220Z,1.40
2018-01-28T06:02:20.881Z,1.40
2018-01-28T06:04:47.916Z,1.50
2018-01-28T06:07:14.161Z,1.50
2018-01-28T06:09:41.194Z,1.50
2018-01-28T06:12:07.988Z,1.50
2018-01-28T06:14:34.709Z,1.50
2018-01-28T06:17:01.705Z,1.50
2018-01-28T06:19:28.338Z,1.50
2018-01-28T06:21:54.605Z,1.50
2018-01-28T06:24:20.874Z,1.50
2018-01-28T06:26:48.595Z,1.60
2018-01-28T06:29:15.532Z,1.60
2018-01-28T06:31:41.781Z,1.60
2018-01-28T06:34:08.039Z,1.60
2018-01-28T06:36:34.801Z,1.60
2018-01-28T06:39:01.803Z,1.70
2018-01-28T06:41:28.556Z,1.70
2018-01-28T06:43:55.257Z,1.70
2018-01-28T06:46:23.225Z,1.80
2018-01-28T06:48:50.656Z,1.80
2018-01-28T06:51:17.340Z,1.80
2018-01-28T06:53:44.329Z,1.90
2018-01-28T06:56:11.049Z,1.80
2018-01-28T06:58:37.713Z,1.90
2018-01-28T07:01:03.980Z,1.90
2018-01-28T07:03:30.233Z,2.00
2018-01-28T07:05:57.241Z,2.10
2018-01-28T07:08:23.496Z,2.10
2018-01-28T07:10:50.933Z,2.10
2018-01-28T07:13:17.642Z,2.10
2018-01-28T07:15:44.633Z,2.30
2018-01-28T07:18:11.341Z,2.30
2018-01-28T07:20:38.333Z,2.50
2018-01-28T07:23:04.606Z,2.40
2018-01-28T07:25:32.044Z,2.60
2018-01-28T07:27:58.993Z,2.60
2018-01-28T07:30:25.251Z,2.70
2018-01-28T07:32:51.517Z,2.80
2018-01-28T07:35:18.036Z,2.90
2018-01-28T07:37:44.281Z,3.00
2018-01-28T07:40:11.836Z,3.10
2018-01-28T07:42:38.692Z,3.20
2018-01-28T07:45:06.297Z,3.30
2018-01-28T07:47:33.205Z,3.30
2018-01-28T07:50:00.201Z,3.50
2018-01-28T07:52:26.460Z,3.40
2018-01-28T07:54:53.241Z,3.50
2018-01-28T07:57:20.977Z,3.60
2018-01-28T07:59:47.773Z,3.60
2018-01-28T08:02:14.050Z,3.70
2018-01-28T08:04:40.321Z,3.80
2018-01-28T08:07:07.373Z,3.90
2018-01-28T08:09:44.121Z,3.90
2018-01-28T08:12:12.020Z,3.90
2018-01-28T08:14:39.073Z,4.00
2018-01-28T08:17:05.403Z,4.00
2018-01-28T08:19:32.069Z,4.00
2018-01-28T08:21:59.465Z,4.10
2018-01-28T08:24:26.465Z,4.10
2018-01-28T08:26:55.301Z,4.30
2018-01-28T08:29:22.772Z,4.30
2018-01-28T08:31:49.017Z,4.40
2018-01-28T08:34:15.320Z,4.40
2018-01-28T08:36:42.069Z,4.50
2018-01-28T08:39:08.337Z,4.50
2018-01-28T08:41:35.106Z,4.60
2018-01-28T08:44:02.597Z,4.70
2018-01-28T08:46:28.853Z,4.60
2018-01-28T08:48:55.569Z,4.80
2018-01-28T08:51:22.561Z,4.90
2018-01-28T08:53:49.289Z,4.90
2018-01-28T08:56:15.606Z,4.90
2018-01-28T08:58:42.545Z,5.00
2018-01-28T09:01:09.545Z,5.10
2018-01-28T09:03:36.253Z,5.00
2018-01-28T09:06:03.897Z,5.10
2018-01-28T09:08:30.549Z,5.10
2018-01-28T09:10:57.893Z,5.30
2018-01-28T09:13:24.626Z,5.30
2018-01-28T09:15:50.877Z,5.30
2018-01-28T09:18:17.737Z,5.40
2018-01-28T09:20:44.800Z,5.50
2018-01-28T09:23:11.793Z,5.50
2018-01-28T09:25:38.993Z,5.50
2018-01-28T09:28:05.754Z,5.50
2018-01-28T09:30:33.205Z,5.60
2018-01-28T09:33:00.203Z,5.60
2018-01-28T09:35:27.013Z,5.60
2018-01-28T09:37:54.885Z,5.50
2018-01-28T09:40:22.578Z,5.60
2018-01-28T09:42:49.217Z,5.60
2018-01-28T09:45:15.913Z,5.60
2018-01-28T09:47:43.252Z,5.70
2018-01-28T09:50:09.533Z,5.70
2018-01-28T09:52:37.181Z,5.80
2018-01-28T09:55:03.937Z,5.80
2018-01-28T09:57:30.185Z,5.90
2018-01-28T09:59:57.172Z,5.90
2018-01-28T10:02:23.457Z,5.90
2018-01-28T10:04:51.236Z,6.00
2018-01-28T10:07:18.789Z,6.00
2018-01-28T10:09:45.053Z,6.00
2018-01-28T10:12:11.883Z,6.00
2018-01-28T10:14:39.434Z,6.10
2018-01-28T10:17:05.731Z,6.10
2018-01-28T10:19:32.283Z,6.10
2018-01-28T10:21:58.541Z,6.00
2018-01-28T10:24:24.812Z,6.10
2018-01-28T10:26:51.421Z,6.20
2018-01-28T10:29:18.034Z,6.20
2018-01-28T10:31:45.021Z,6.30
2018-01-28T10:34:13.947Z,6.30
2018-01-28T10:36:40.770Z,6.30
2018-01-28T10:39:07.769Z,6.40
2018-01-28T10:41:34.666Z,6.40
2018-01-28T10:44:02.157Z,6.50
2018-01-28T10:46:28.445Z,6.40
2018-01-28T10:48:56.229Z,6.50
2018-01-28T10:51:23.785Z,6.60
2018-01-28T10:53:50.093Z,6.60
2018-01-28T10:56:16.346Z,6.70
2018-01-28T10:58:42.630Z,6.70
2018-01-28T11:01:09.180Z,6.90
2018-01-28T11:03:36.071Z,6.90
2018-01-28T11:06:03.844Z,7.20
2018-01-28T11:08:30.833Z,7.30
2018-01-28T11:10:57.531Z,7.30
2018-01-28T11:13:23.778Z,7.40
2018-01-28T11:15:50.053Z,7.50
2018-01-28T11:18:16.647Z,7.60
2018-01-28T11:20:42.899Z,7.60
2018-01-28T11:23:09.173Z,7.60
2018-01-28T11:25:35.954Z,7.60
2018-01-28T11:28:02.758Z,7.60
2018-01-28T11:30:29.443Z,7.60
2018-01-28T11:32:57.053Z,7.60
2018-01-28T11:35:24.613Z,7.70
2018-01-28T11:37:52.210Z,7.80
2018-01-28T11:40:18.507Z,7.80
2018-01-28T11:42:46.043Z,7.90
2018-01-28T11:45:12.950Z,7.90
2018-01-28T11:47:39.571Z,8.00
2018-01-28T11:50:06.570Z,8.10
2018-01-28T11:52:32.828Z,8.00
2018-01-28T11:54:59.410Z,8.10
2018-01-28T11:57:26.248Z,8.10
2018-01-28T11:59:53.738Z,8.30
2018-01-28T12:02:20.018Z,8.30
2018-01-28T12:04:46.299Z,8.30
2018-01-28T12:07:12.829Z,8.40
2018-01-28T12:09:39.850Z,8.50
2018-01-28T12:12:06.577Z,8.50
2018-01-28T12:14:32.863Z,8.40
2018-01-28T12:16:59.854Z,8.40
2018-01-28T12:19:26.583Z,8.40
2018-01-28T12:21:52.843Z,8.40
2018-01-28T12:24:19.091Z,8.40
2018-01-28T12:26:45.737Z,8.50
2018-01-28T12:29:12.370Z,8.60
2018-01-28T12:31:38.665Z,8.60
2018-01-28T12:34:05.612Z,8.60
2018-01-28T12:36:31.877Z,8.70
2018-01-28T12:38:58.666Z,8.80
2018-01-28T12:41:25.710Z,8.90
2018-01-28T12:43:52.321Z,8.80
2018-01-28T12:46:19.217Z,8.90
2018-01-28T12:48:46.481Z,9.00
2018-01-28T12:51:13.493Z,8.90
2018-01-28T12:53:39.772Z,8.90
2018-01-28T12:56:06.418Z,8.90
2018-01-28T12:58:33.095Z,8.90
2018-01-28T13:00:59.997Z,8.90
2018-01-28T13:03:27.080Z,8.90
2018-01-28T13:05:53.355Z,8.90
2018-01-28T13:08:19.658Z,8.80
2018-01-28T13:10:46.944Z,8.70
2018-01-28T13:13:13.265Z,8.80
2018-01-28T13:15:39.537Z,8.60
2018-01-28T13:18:06.301Z,8.70
2018-01-28T13:20:33.309Z,8.70
2018-01-28T13:22:59.583Z,8.70
2018-01-28T13:25:27.060Z,8.70
2018-01-28T13:27:53.789Z,8.70
2018-01-28T13:30:21.339Z,8.80
2018-01-28T13:32:48.107Z,8.80
2018-01-28T13:35:15.113Z,8.70
2018-01-28T13:37:41.802Z,8.70
2018-01-28T13:40:08.796Z,8.60
2018-01-28T13:42:35.519Z,8.60
2018-01-28T13:45:02.168Z,8.60
2018-01-28T13:47:28.922Z,8.50
2018-01-28T13:49:55.945Z,8.50
2018-01-28T13:52:23.593Z,8.50
2018-01-28T13:54:50.288Z,8.40
2018-01-28T13:57:17.097Z,8.40
2018-01-28T13:59:44.092Z,8.40
2018-01-28T14:02:10.781Z,8.40
2018-01-28T14:04:37.036Z,8.40
2018-01-28T14:07:04.033Z,8.30
2018-01-28T14:09:30.619Z,8.30
2018-01-28T14:11:58.250Z,8.50
2018-01-28T14:14:24.489Z,8.40
2018-01-28T14:16:50.765Z,8.50
2018-01-28T14:19:18.822Z,8.40
2018-01-28T14:21:46.321Z,8.50
2018-01-28T14:24:12.592Z,8.50
2018-01-28T14:26:39.385Z,8.50
2018-01-28T14:29:06.841Z,8.50
2018-01-28T14:31:33.865Z,8.60
2018-01-28T14:34:00.637Z,8.50
2018-01-28T14:36:28.290Z,8.50
2018-01-28T14:38:54.533Z,8.50
2018-01-28T14:41:21.969Z,8.50
2018-01-28T14:43:48.724Z,8.40
2018-01-28T14:46:15.029Z,8.40
2018-01-28T14:48:42.003Z,8.40
2018-01-28T14:51:09.861Z,8.40
2018-01-28T14:53:36.578Z,8.40
2018-01-28T14:56:02.826Z,8.40
2018-01-28T14:58:29.092Z,8.30
2018-01-28T15:00:55.956Z,8.20
2018-01-28T15:03:22.961Z,8.10
2018-01-28T15:05:49.226Z,8.00
2018-01-28T15:08:15.509Z,8.00
2018-01-28T15:10:42.241Z,7.90
2018-01-28T15:13:10.441Z,7.70
2018-01-28T15:15:36.717Z,7.70
2018-01-28T15:18:04.122Z,7.80
2018-01-28T15:20:30.773Z,7.80
2018-01-28T15:22:57.394Z,7.80
2018-01-28T15:25:25.202Z,7.70
2018-01-28T15:27:51.935Z,7.70
2018-01-28T15:30:18.536Z,7.60
2018-01-28T15:32:44.814Z,7.60
2018-01-28T15:35:11.500Z,7.50
2018-01-28T15:37:39.818Z,7.40
2018-01-28T15:40:06.851Z,7.30
2018-01-28T15:42:33.547Z,7.30
2018-01-28T15:45:00.154Z,7.30
2018-01-28T15:47:27.652Z,7.10
2018-01-28T15:49:53.933Z,7.20
2018-01-28T15:52:20.754Z,7.10
2018-01-28T15:54:47.055Z,7.10
2018-01-28T15:57:13.653Z,7.10
2018-01-28T15:59:39.922Z,7.00
2018-01-28T16:02:06.205Z,6.90
2018-01-28T16:04:32.522Z,6.80
2018-01-28T16:06:58.785Z,6.80
2018-01-28T16:09:25.542Z,6.70
2018-01-28T16:11:52.338Z,6.60
2018-01-28T16:14:18.593Z,6.60
2018-01-28T16:16:44.853Z,6.60
2018-01-28T16:19:11.717Z,6.60
2018-01-28T16:21:38.711Z,6.50
2018-01-28T16:24:05.382Z,6.50
2018-01-28T16:26:32.369Z,6.40
2018-01-28T16:28:59.932Z,6.40
2018-01-28T16:31:26.934Z,6.40
2018-01-28T16:33:53.626Z,6.40
2018-01-28T16:36:20.997Z,6.40
2018-01-28T16:38:48.005Z,6.30
2018-01-28T16:41:14.265Z,6.30
2018-01-28T16:43:41.337Z,6.30
2018-01-28T16:46:08.353Z,6.30
2018-01-28T16:48:35.273Z,6.30
2018-01-28T16:51:01.514Z,6.20
2018-01-28T16:53:27.789Z,6.20
2018-01-28T16:55:54.082Z,6.10
2018-01-28T16:58:20.365Z,6.10
2018-01-28T17:00:46.692Z,6.10
2018-01-28T17:03:12.989Z,6.00
2018-01-28T17:05:39.258Z,6.00
2018-01-28T17:08:05.509Z,5.90
2018-01-28T17:10:32.978Z,5.70
2018-01-28T17:13:00.589Z,5.70
2018-01-28T17:15:27.353Z,5.70
2018-01-28T17:17:54.153Z,5.60
2018-01-28T17:20:20.974Z,5.60
2018-01-28T17:22:47.225Z,5.60
2018-01-28T17:25:14.749Z,5.50
2018-01-28T17:27:41.538Z,5.50
2018-01-28T17:30:09.085Z,5.60
2018-01-28T17:32:36.956Z,5.60
2018-01-28T17:35:04.362Z,5.60
2018-01-28T17:37:30.653Z,5.70
2018-01-28T17:39:58.085Z,5.80
2018-01-28T17:42:25.490Z,5.70
2018-01-28T17:44:52.917Z,5.70
2018-01-28T17:47:21.114Z,5.80
2018-01-28T17:49:48.109Z,5.70
2018-01-28T17:52:14.349Z,5.70
2018-01-28T17:54:40.669Z,5.80
2018-01-28T17:57:07.292Z,5.80
2018-01-28T17:59:34.285Z,5.60
2018-01-28T18:02:00.549Z,5.50
2018-01-28T18:04:28.217Z,5.60
2018-01-28T18:06:56.138Z,5.60
2018-01-28T18:09:23.026Z,5.70
2018-01-28T18:11:49.907Z,5.70
2018-01-28T18:14:17.408Z,5.80
2018-01-28T18:16:43.772Z,5.70
2018-01-28T18:19:10.713Z,5.70
2018-01-28T18:21:36.984Z,5.60
2018-01-28T18:24:04.041Z,5.50
2018-01-28T18:26:31.554Z,5.50
2018-01-28T18:28:58.311Z,5.50
2018-01-28T18:31:25.301Z,5.60
2018-01-28T18:33:51.954Z,5.60
2018-01-28T18:36:18.964Z,5.60
2018-01-28T18:38:45.225Z,5.60
2018-01-28T18:41:11.789Z,5.50
2018-01-28T18:43:39.273Z,5.60
2018-01-28T18:46:05.537Z,5.60
2018-01-28T18:48:31.793Z,5.60
2018-01-28T18:50:58.469Z,5.70
2018-01-28T18:53:24.777Z,5.70
2018-01-28T18:55:51.133Z,5.70
2018-01-28T18:58:18.429Z,5.70
2018-01-28T19:00:44.723Z,5.60
2018-01-28T19:03:11.721Z,5.70
2018-01-28T19:05:38.324Z,5.70
2018-01-28T19:08:05.324Z,5.70
2018-01-28T19:10:32.213Z,5.70
2018-01-28T19:12:59.676Z,5.80
2018-01-28T19:15:27.140Z,5.70
2018-01-28T19:18:09.657Z,5.60
2018-01-28T19:20:36.645Z,5.60
2018-01-28T19:23:02.932Z,5.60
2018-01-28T19:25:30.303Z,5.70
2018-01-28T19:27:57.663Z,5.60
2018-01-28T19:30:25.122Z,5.50
2018-01-28T19:32:52.116Z,5.70
2018-01-28T19:35:18.377Z,5.60
2018-01-28T19:37:45.481Z,5.60
2018-01-28T19:40:11.741Z,5.60
2018-01-28T19:42:38.361Z,5.50
2018-01-28T19:45:05.199Z,5.50
2018-01-28T19:47:31.452Z,5.50
2018-01-28T19:49:58.165Z,5.50
2018-01-28T19:52:25.187Z,5.60
2018-01-28T19:54:53.516Z,5.50
2018-01-28T19:57:19.792Z,5.50
2018-01-28T19:59:46.762Z,5.50
2018-01-28T20:02:13.556Z,5.60
2018-01-28T20:04:40.233Z,5.50
2018-01-28T20:07:06.513Z,5.50
2018-01-28T20:09:33.970Z,5.40
2018-01-28T20:12:01.314Z,5.50
2018-01-28T20:14:28.285Z,5.50
2018-01-28T20:16:55.722Z,5.40
2018-01-28T20:19:23.313Z,5.40
2018-01-28T20:21:50.327Z,5.40
2018-01-28T20:24:17.530Z,5.40
2018-01-28T20:26:44.321Z,5.40
2018-01-28T20:29:11.181Z,5.50
2018-01-28T20:31:38.157Z,5.60
2018-01-28T20:34:05.181Z,5.50
2018-01-28T20:36:31.470Z,5.50
2018-01-28T20:38:58.282Z,5.50
2018-01-28T20:41:24.645Z,5.50
2018-01-28T20:43:51.386Z,5.60
2018-01-28T20:46:18.428Z,5.60
2018-01-28T20:48:45.429Z,5.60
2018-01-28T20:51:12.117Z,5.60
2018-01-28T20:53:39.241Z,5.60
2018-01-28T20:56:06.230Z,5.60
2018-01-28T20:58:33.237Z,5.50
2018-01-28T21:00:59.511Z,5.50
2018-01-28T21:03:26.879Z,5.50
2018-01-28T21:05:54.321Z,5.60
2018-01-28T21:08:20.589Z,5.50
2018-01-28T21:10:47.205Z,5.50
2018-01-28T21:13:14.065Z,5.50
2018-01-28T21:15:41.735Z,5.40
2018-01-28T21:18:09.300Z,5.40
2018-01-28T21:20:36.309Z,5.30
2018-01-28T21:23:03.052Z,5.30
2018-01-28T21:25:29.754Z,5.40
2018-01-28T21:27:56.377Z,5.30
2018-01-28T21:30:23.394Z,5.30
2018-01-28T21:32:49.653Z,5.30
2018-01-28T21:35:17.637Z,5.20
2018-01-28T21:37:45.074Z,5.20
2018-01-28T21:40:11.329Z,5.20
2018-01-28T21:42:38.068Z,5.30
2018-01-28T21:45:05.141Z,5.20
2018-01-28T21:47:33.525Z,5.20
2018-01-28T21:50:00.514Z,5.10
2018-01-28T21:52:26.770Z,5.20
2018-01-28T21:54:53.045Z,5.20
2018-01-28T21:57:20.074Z,5.20
2018-01-28T21:59:46.485Z,5.20
2018-01-28T22:02:12.785Z,5.20
2018-01-28T22:04:39.461Z,5.20
2018-01-28T22:07:05.717Z,5.10
2018-01-28T22:09:34.228Z,5.20
2018-01-28T22:12:01.565Z,5.30
2018-01-28T22:14:29.328Z,5.20
2018-01-28T22:16:56.306Z,5.20
2018-01-28T22:19:23.785Z,5.20
2018-01-28T22:21:50.522Z,5.20
2018-01-28T22:24:17.521Z,5.20
2018-01-28T22:26:44.305Z,5.20
2018-01-28T22:29:11.372Z,5.10
2018-01-28T22:31:38.803Z,5.10
2018-01-28T22:34:07.114Z,5.00
2018-01-28T22:36:34.117Z,4.90
2018-01-28T22:39:01.139Z,4.90
2018-01-28T22:41:28.068Z,4.90
2018-01-28T22:43:56.134Z,4.90
2018-01-28T22:46:22.999Z,4.90
2018-01-28T22:48:50.006Z,4.70
2018-01-28T22:51:16.276Z,4.70
2018-01-28T22:53:43.637Z,4.70
2018-01-28T22:56:10.634Z,4.60
2018-01-28T22:58:37.013Z,4.50
2018-01-28T23:01:04.298Z,4.40
2018-01-28T23:03:31.287Z,4.30
2018-01-28T23:05:58.090Z,4.40
2018-01-28T23:08:25.093Z,4.20
2018-01-28T23:10:51.937Z,4.20
2018-01-28T23:13:18.621Z,4.20
2018-01-28T23:15:46.289Z,4.10
2018-01-28T23:18:13.748Z,4.10
2018-01-28T23:20:40.748Z,4.00
2018-01-28T23:23:07.021Z,4.00
2018-01-28T23:25:35.028Z,3.90
2018-01-28T23:28:02.573Z,3.90
2018-01-28T23:30:29.580Z,3.80
2018-01-28T23:32:56.225Z,3.80
2018-01-28T23:35:22.492Z,3.70
2018-01-28T23:37:48.850Z,3.70
2018-01-28T23:40:15.893Z,3.50
2018-01-28T23:42:43.977Z,3.40
2018-01-28T23:45:11.752Z,3.40
2018-01-28T23:47:38.781Z,3.30
2018-01-28T23:50:05.813Z,3.30
2018-01-28T23:52:32.081Z,3.20
2018-01-28T23:54:59.066Z,3.30
2018-01-28T23:57:26.085Z,3.30
2018-01-28T23:59:53.116Z,3.30
